Time;durP1;ratioP1;P1;durP2;ratioP2;P2;SDS_P1;SDS_P2;PMS_P1;PMS_P2;Temp;Humidity;BMP_temperature;BMP_pressure;BME280_temperature;BME280_humidity;BME280_pressure;Samples;Min_cycle;Max_cycle;Signal;HPM_P1;HPM_P2
2022/09/07 00:00:27;;;;;;;9.85;3.33;;;;;;;-143.48;85.33;78055.81;5034013;28;20455;-74
2022/09/07 00:02:52;;;;;;;11.30;3.70;;;;;;;-143.48;85.70;78047.88;5033520;28;20101;-74
2022/09/07 00:05:18;;;;;;;13.30;3.58;;;;;;;-143.48;85.05;78057.78;5032402;28;20022;-74
2022/09/07 00:07:43;;;;;;;10.25;3.55;;;;;;;-143.48;85.43;78059.75;5034037;28;20036;-75
2022/09/07 00:10:08;;;;;;;12.70;3.80;;;;;;;-143.48;85.91;78043.91;5033935;28;20543;-75
2022/09/07 00:12:34;;;;;;;9.52;3.72;;;;;;;-143.48;85.07;78030.03;5033014;28;20032;-75
2022/09/07 00:15:00;;;;;;;8.40;3.15;;;;;;;-143.48;83.90;78016.13;5032246;28;20481;-75
2022/09/07 00:17:26;;;;;;;9.73;3.45;;;;;;;-143.48;84.38;78006.22;5032197;28;20036;-75
2022/09/07 00:19:51;;;;;;;8.50;2.78;;;;;;;-143.48;83.40;78030.03;5033702;28;20029;-73
2022/09/07 00:22:16;;;;;;;7.32;2.92;;;;;;;-143.48;84.43;78010.19;5032213;28;20032;-75
2022/09/07 00:24:42;;;;;;;9.60;2.75;;;;;;;-143.48;84.83;78026.06;5033092;28;20476;-73
2022/09/07 00:27:07;;;;;;;7.70;2.72;;;;;;;-143.48;84.80;78035.97;5032141;28;20028;-73
2022/09/07 00:29:32;;;;;;;10.70;2.80;;;;;;;-143.48;85.72;78024.06;5033648;28;20025;-73
2022/09/07 00:31:57;;;;;;;7.57;2.90;;;;;;;-143.48;85.32;78037.94;5033253;28;20029;-74
2022/09/07 00:34:23;;;;;;;7.55;2.78;;;;;;;-143.48;85.51;78037.94;5033288;28;20100;-74
2022/09/07 00:36:48;;;;;;;8.82;3.00;;;;;;;-143.48;85.05;78035.97;5033180;28;20034;-74
2022/09/07 00:39:13;;;;;;;5.35;2.50;;;;;;;-143.48;84.87;78033.97;5033121;28;20399;-74
2022/09/07 00:41:39;;;;;;;7.18;2.72;;;;;;;-143.48;84.17;78010.19;5031941;28;20029;-74
2022/09/07 00:44:41;;;;;;;6.65;2.63;;;;;;;-143.48;83.46;78006.22;5033105;28;20032;-75
2022/09/07 00:47:09;;;;;;;9.45;2.88;;;;;;;-143.48;83.41;77978.47;5033172;28;20037;-74
2022/09/07 00:49:34;;;;;;;6.78;2.53;;;;;;;-143.48;82.26;77986.41;5033008;28;20018;-74
2022/09/07 00:52:03;;;;;;;5.05;2.25;;;;;;;-143.48;83.48;77974.50;5033043;28;20420;-74
2022/09/07 00:54:43;;;;;;;6.78;2.42;;;;;;;-143.48;83.67;77970.53;5032737;28;20045;-74
2022/09/07 00:57:09;;;;;;;6.05;2.08;;;;;;;-143.48;83.76;77988.38;5033260;28;20049;-74
2022/09/07 00:59:38;;;;;;;7.20;2.22;;;;;;;-143.48;84.58;77976.47;5031583;28;20022;-74
2022/09/07 01:02:04;;;;;;;5.88;2.20;;;;;;;-143.48;83.50;77980.44;5032943;28;20481;-74
2022/09/07 01:04:31;;;;;;;4.95;1.85;;;;;;;-143.48;83.04;77990.34;5032822;28;20473;-74
2022/09/07 01:06:56;;;;;;;6.43;2.00;;;;;;;-143.48;83.28;78008.22;5032952;28;20034;-74
2022/09/07 01:09:24;;;;;;;8.20;2.90;;;;;;;-143.48;83.94;78008.22;5032783;28;20470;-74
2022/09/07 01:11:53;;;;;;;5.10;1.92;;;;;;;-143.48;83.43;78004.25;5032737;28;20021;-74
2022/09/07 01:14:26;;;;;;;3.50;1.50;;;;;;;-143.48;82.81;77996.31;5033695;28;20026;-74
2022/09/07 01:16:58;;;;;;;3.70;1.60;;;;;;;-143.48;81.92;78004.25;5036983;28;20022;-74
2022/09/07 01:19:54;;;;;;;6.80;2.08;;;;;;;-143.48;82.13;77986.41;5036941;28;20029;-74
2022/09/07 01:22:34;;;;;;;5.95;2.03;;;;;;;-143.48;81.01;78010.19;5036684;28;20018;-74
2022/09/07 01:25:13;;;;;;;5.30;1.73;;;;;;;-143.48;82.04;78014.16;5036604;28;20546;-75
2022/09/07 01:27:51;;;;;;;5.72;1.77;;;;;;;-143.48;81.67;78022.09;5035417;28;20025;-74
2022/09/07 01:30:22;;;;;;;4.43;1.70;;;;;;;-143.48;81.01;78039.94;5036752;28;20412;-74
2022/09/07 01:33:12;;;;;;;5.13;1.70;;;;;;;-143.48;82.27;78043.91;5035352;28;20023;-75
2022/09/07 01:35:46;;;;;;;3.67;1.75;;;;;;;-143.48;82.33;78047.88;5035270;28;20030;-75
2022/09/07 01:38:32;;;;;;;3.65;1.63;;;;;;;-143.48;82.15;78030.03;5036557;28;20025;-75
2022/09/07 01:41:06;;;;;;;3.60;1.90;;;;;;;-143.48;81.78;78035.97;5035073;28;20048;-74
2022/09/07 01:43:34;;;;;;;4.68;1.90;;;;;;;-143.48;81.71;78024.06;5036364;28;20083;-75
2022/09/07 01:46:05;;;;;;;4.47;1.70;;;;;;;-143.48;81.66;78032.00;5035008;28;20025;-74
2022/09/07 01:48:35;;;;;;;3.10;1.60;;;;;;;-143.48;81.71;78028.03;5036376;28;20037;-75
2022/09/07 01:51:10;;;;;;;1.80;1.25;;;;;;;-143.48;81.14;78051.84;5034958;28;20033;-76
2022/09/07 01:53:45;;;;;;;2.17;1.42;;;;;;;-143.48;81.58;78030.03;5034820;28;20021;-76
2022/09/07 01:56:15;;;;;;;3.10;1.42;;;;;;;-143.48;79.96;78033.97;5036015;28;20049;-76
2022/09/07 01:58:52;;;;;;;4.95;1.52;;;;;;;-143.48;80.00;78026.06;5034822;28;20030;-75
2022/09/07 02:01:40;;;;;;;3.88;1.80;;;;;;;-143.48;80.68;78047.88;5036073;28;20053;-75
2022/09/07 02:04:14;;;;;;;6.20;1.73;;;;;;;-143.48;81.57;78010.19;5036046;28;20029;-75
2022/09/07 02:07:01;;;;;;;4.35;1.65;;;;;;;-143.48;80.21;78008.22;5035947;28;20029;-75
2022/09/07 02:09:48;;;;;;;2.20;1.45;;;;;;;-143.48;79.81;78028.03;5036068;28;20018;-75
2022/09/07 02:12:22;;;;;;;2.08;1.50;;;;;;;-143.48;80.76;78004.25;5035862;28;20384;-76
2022/09/07 02:14:52;;;;;;;5.75;1.73;;;;;;;-143.48;81.03;77996.31;5035740;28;20017;-75
2022/09/07 02:17:28;;;;;;;6.38;1.60;;;;;;;-143.48;79.92;78028.03;5035832;28;20025;-76
2022/09/07 02:20:02;;;;;;;2.72;1.30;;;;;;;-143.48;79.78;78049.84;5034719;28;20021;-75
2022/09/07 02:22:31;;;;;;;3.03;1.77;;;;;;;-143.48;80.18;78020.09;5035456;28;20037;-74
2022/09/07 02:25:00;;;;;;;5.80;1.70;;;;;;;-143.48;79.66;77998.28;5035223;28;20112;-74
2022/09/07 02:27:34;;;;;;;4.00;1.40;;;;;;;-143.48;79.40;78016.13;5035162;28;20499;-75
2022/09/07 02:29:59;;;;;;;3.13;1.60;;;;;;;-143.48;79.87;78022.09;5035607;28;20056;-74
2022/09/07 02:32:25;;;;;;;2.78;1.48;;;;;;;-143.48;80.26;78000.28;5035487;28;20075;-75
2022/09/07 02:34:50;;;;;;;4.93;1.40;;;;;;;-143.48;80.09;78032.00;5035377;28;20033;-74
2022/09/07 02:37:18;;;;;;;3.28;1.60;;;;;;;-143.48;82.20;78033.97;5035475;28;20079;-74
2022/09/07 02:39:44;;;;;;;3.63;1.60;;;;;;;-143.48;82.15;78028.03;5033950;28;20036;-75
2022/09/07 02:42:09;;;;;;;5.15;1.70;;;;;;;-143.48;82.65;78010.19;5034061;28;20033;-75
2022/09/07 02:44:37;;;;;;;3.50;1.77;;;;;;;-143.48;83.04;78006.22;5035182;28;20021;-75
2022/09/07 02:47:19;;;;;;;4.75;1.67;;;;;;;-143.48;83.09;78010.19;5033896;28;20041;-75
2022/09/07 02:50:08;;;;;;;3.45;1.80;;;;;;;-143.48;82.80;78016.13;5035134;28;20084;-75
2022/09/07 02:52:58;;;;;;;2.75;1.40;;;;;;;-143.48;81.62;78030.03;5035251;28;20040;-75
2022/09/07 02:55:55;;;;;;;3.17;1.60;;;;;;;-143.48;81.82;78024.06;5033513;28;20049;-75
2022/09/07 02:58:38;;;;;;;3.10;1.35;;;;;;;-143.48;82.47;78010.19;5033750;28;20021;-75
2022/09/07 03:01:34;;;;;;;5.68;1.70;;;;;;;-143.48;82.91;77998.28;5034931;28;20056;-75
2022/09/07 03:04:14;;;;;;;2.65;1.80;;;;;;;-143.48;83.47;77996.31;5034821;28;20018;-75
2022/09/07 03:06:46;;;;;;;3.50;1.65;;;;;;;-143.48;82.79;77996.31;5034918;28;20033;-75
2022/09/07 03:09:18;;;;;;;4.60;1.50;;;;;;;-143.48;82.45;78018.13;5033615;28;20029;-75
2022/09/07 03:11:43;;;;;;;3.95;1.40;;;;;;;-143.48;82.13;78000.28;5033427;28;20052;-75
2022/09/07 03:14:11;;;;;;;4.32;1.50;;;;;;;-143.48;81.52;78018.13;5033525;28;20014;-75
2022/09/07 03:16:36;;;;;;;3.75;1.40;;;;;;;-143.48;81.55;78012.16;5034582;28;20536;-75
2022/09/07 03:19:02;;;;;;;6.43;1.83;;;;;;;-143.48;83.09;78008.22;5033389;28;20116;-75
2022/09/07 03:21:27;;;;;;;4.85;1.52;;;;;;;-143.48;82.15;78028.03;5034545;28;20385;-75
2022/09/07 03:23:53;;;;;;;4.60;1.50;;;;;;;-143.48;82.20;78032.00;5033084;28;20029;-76
2022/09/07 03:26:23;;;;;;;2.75;1.40;;;;;;;-143.48;82.62;78059.75;5034391;28;20033;-76
2022/09/07 03:28:48;;;;;;;2.78;1.40;;;;;;;-143.48;83.65;78045.88;5033192;28;20029;-75
2022/09/07 03:31:13;;;;;;;3.92;1.35;;;;;;;-143.48;82.15;78030.03;5033038;28;20032;-76
2022/09/07 03:33:39;;;;;;;2.85;1.48;;;;;;;-143.48;80.63;78026.06;5034190;28;20026;-75
2022/09/07 03:36:05;;;;;;;4.10;1.45;;;;;;;-143.48;80.16;78045.88;5034319;28;20103;-76
2022/09/07 03:38:30;;;;;;;3.88;1.35;;;;;;;-143.48;80.95;78026.06;5033496;28;20025;-75
2022/09/07 03:40:57;;;;;;;3.97;1.50;;;;;;;-143.48;80.45;78028.03;5034319;28;20124;-75
2022/09/07 03:43:24;;;;;;;4.65;1.40;;;;;;;-143.48;79.83;78028.03;5034102;28;20075;-76
2022/09/07 03:45:49;;;;;;;4.65;1.42;;;;;;;-143.48;80.04;78028.03;5034183;28;20033;-75
2022/09/07 03:48:14;;;;;;;3.83;1.55;;;;;;;-143.48;80.19;78026.06;5033972;28;20477;-75
2022/09/07 03:50:40;;;;;;;3.95;1.38;;;;;;;-143.48;81.16;78047.88;5034039;28;20021;-75
2022/09/07 03:53:05;;;;;;;5.47;1.77;;;;;;;-143.48;81.60;78035.97;5033914;28;20021;-75
2022/09/07 03:55:30;;;;;;;4.45;1.60;;;;;;;-143.48;81.59;78028.03;5033721;28;20103;-74
2022/09/07 03:57:55;;;;;;;3.83;1.65;;;;;;;-143.48;81.55;78032.00;5033987;28;20400;-75
2022/09/07 04:00:21;;;;;;;2.50;1.60;;;;;;;-143.48;81.00;78018.13;5033982;28;20028;-75
2022/09/07 04:02:46;;;;;;;2.67;1.60;;;;;;;-143.48;81.16;78051.84;5034129;28;20039;-75
2022/09/07 04:05:11;;;;;;;3.88;1.65;;;;;;;-143.48;82.61;78045.88;5033813;28;20141;-76
2022/09/07 04:07:37;;;;;;;3.17;1.73;;;;;;;-143.48;82.17;78047.88;5034057;28;20359;-76
2022/09/07 04:10:02;;;;;;;2.72;1.58;;;;;;;-143.48;82.31;78039.94;5033796;28;20046;-75
2022/09/07 04:12:28;;;;;;;2.20;1.67;;;;;;;-143.48;82.44;78035.97;5033723;28;20036;-75
2022/09/07 04:14:53;;;;;;;3.10;1.80;;;;;;;-143.48;82.36;78039.94;5032439;28;20025;-75
2022/09/07 04:17:18;;;;;;;3.65;1.90;;;;;;;-143.48;82.43;78043.91;5033393;28;20119;-73
2022/09/07 04:19:44;;;;;;;4.10;2.00;;;;;;;-143.48;82.82;78049.84;5033807;28;20028;-75
2022/09/07 04:22:09;;;;;;;4.40;1.98;;;;;;;-143.48;82.46;78061.75;5036585;28;20031;-79
2022/09/07 04:24:34;;;;;;;5.75;2.10;;;;;;;-143.48;82.30;78045.88;5038229;28;20036;-79
2022/09/07 04:27:00;;;;;;;4.03;2.05;;;;;;;-143.48;81.82;78035.97;5038675;28;20041;-80
2022/09/07 04:29:26;;;;;;;3.67;1.95;;;;;;;-143.48;81.15;78028.03;5037412;28;20030;-79
2022/09/07 04:31:51;;;;;;;3.20;2.00;;;;;;;-143.48;80.95;78045.88;5037166;28;20026;-80
2022/09/07 04:34:16;;;;;;;6.20;2.28;;;;;;;-143.48;81.21;78055.81;5038498;28;20097;-79
2022/09/07 04:36:41;;;;;;;6.30;2.53;;;;;;;-143.48;82.08;78047.88;5037869;28;20033;-79
2022/09/07 04:39:07;;;;;;;3.70;2.28;;;;;;;-143.48;82.93;78069.69;5037748;28;20021;-79
2022/09/07 04:41:33;;;;;;;3.45;1.98;;;;;;;-143.48;82.29;78075.63;5034838;28;20388;-76
2022/09/07 04:44:00;;;;;;;3.70;2.10;;;;;;;-143.48;82.44;78097.44;5033184;28;20037;-76
2022/09/07 04:46:34;;;;;;;5.07;2.30;;;;;;;-143.48;83.19;78109.34;5045711;28;20050;-76
2022/09/07 04:49:09;;;;;;;4.57;2.25;;;;;;;-143.48;83.62;78113.31;5036722;28;20021;-75
2022/09/07 04:51:35;;;;;;;6.18;2.50;;;;;;;-143.48;83.77;78105.38;5034312;28;20034;-78
2022/09/07 04:54:01;;;;;;;5.15;2.45;;;;;;;-143.48;83.96;78107.34;5018435;28;20469;-75
2022/09/07 04:56:27;;;;;;;5.25;2.50;;;;;;;-143.48;83.33;78111.31;5034084;28;20400;-75
2022/09/07 04:58:53;;;;;;;5.50;2.60;;;;;;;-143.48;83.83;78111.31;5039050;28;20033;-79
2022/09/07 05:01:21;;;;;;;4.38;2.40;;;;;;;-143.48;83.41;78099.44;5034758;28;20025;-76
2022/09/07 05:03:48;;;;;;;5.18;2.47;;;;;;;-143.48;83.90;78083.56;5031815;28;20022;-75
2022/09/07 05:06:15;;;;;;;4.70;2.50;;;;;;;-143.48;82.93;78081.56;5032574;28;20029;-75
2022/09/07 05:08:42;;;;;;;5.70;2.58;;;;;;;-143.48;82.23;78089.50;5033367;28;20030;-74
2022/09/07 05:11:09;;;;;;;3.53;2.30;;;;;;;-143.48;82.16;78075.63;5032091;28;20029;-75
2022/09/07 05:13:35;;;;;;;5.15;2.40;;;;;;;-143.48;81.34;78087.53;5031726;28;20432;-74
2022/09/07 05:16:10;;;;;;;5.78;2.47;;;;;;;-143.48;81.65;78083.56;5031786;28;20108;-75
2022/09/07 05:18:36;;;;;;;5.00;2.78;;;;;;;-143.48;81.29;78091.50;5031816;28;20051;-76
2022/09/07 05:21:10;;;;;;;4.18;2.30;;;;;;;-143.48;81.35;78085.53;5032959;28;20029;-76
2022/09/07 05:23:36;;;;;;;4.05;2.47;;;;;;;-143.48;81.63;78071.66;5031452;28;20036;-75
2022/09/07 05:26:03;;;;;;;6.13;2.38;;;;;;;-143.48;81.18;78071.66;5032089;28;20124;-73
2022/09/07 05:28:28;;;;;;;4.85;2.47;;;;;;;-143.48;80.74;78067.69;5033450;28;20029;-75
2022/09/07 05:30:53;;;;;;;6.03;2.30;;;;;;;-143.48;81.26;78055.81;5031482;28;20029;-75
2022/09/07 05:33:19;;;;;;;5.75;2.40;;;;;;;-143.48;81.83;78055.81;5032898;28;20105;-75
2022/09/07 05:35:55;;;;;;;3.47;2.47;;;;;;;-143.48;81.80;78051.84;5035779;28;20080;-74
2022/09/07 05:38:20;;;;;;;4.85;2.65;;;;;;;-143.48;81.08;78059.75;5048761;28;20053;-75
2022/09/07 05:40:46;;;;;;;6.82;2.80;;;;;;;-143.48;80.30;78063.72;5049502;28;20089;-76
2022/09/07 05:43:11;;;;;;;5.75;2.97;;;;;;;-143.48;81.00;78067.69;5035661;28;20013;-75
2022/09/07 05:45:36;;;;;;;5.60;2.63;;;;;;;-143.48;81.09;78057.78;5033642;28;20034;-74
2022/09/07 05:48:02;;;;;;;8.93;2.90;;;;;;;-143.48;80.78;78043.91;5034347;28;20032;-76
2022/09/07 05:50:27;;;;;;;7.28;3.20;;;;;;;-143.48;80.08;78047.88;5033927;28;20032;-74
2022/09/07 05:52:53;;;;;;;7.82;3.78;;;;;;;-143.48;80.38;78035.97;5033634;28;20037;-75
2022/09/07 05:55:18;;;;;;;10.27;3.30;;;;;;;-143.48;79.84;78051.84;5031797;28;20130;-75
2022/09/07 05:57:43;;;;;;;8.13;3.28;;;;;;;-143.48;80.97;78059.75;5032833;28;20028;-76
2022/09/07 06:00:09;;;;;;;6.63;2.88;;;;;;;-143.48;81.26;78037.94;5033942;28;20030;-75
2022/09/07 06:02:35;;;;;;;8.20;3.33;;;;;;;-143.48;81.70;78039.94;5036060;28;20033;-75
2022/09/07 06:05:00;;;;;;;5.75;3.28;;;;;;;-143.48;81.18;78037.94;5036129;28;20021;-75
2022/09/07 06:07:25;;;;;;;7.72;3.50;;;;;;;-143.48;80.46;78030.03;5035493;28;20389;-75
2022/09/07 06:09:50;;;;;;;5.15;3.13;;;;;;;-143.48;79.93;78016.13;5036392;28;20032;-76
2022/09/07 06:12:16;;;;;;;5.70;4.10;;;;;;;-143.48;79.15;78030.03;5036109;28;20112;-75
2022/09/07 06:14:41;;;;;;;5.03;3.10;;;;;;;-143.48;79.08;78012.16;5035306;28;20536;-76
2022/09/07 06:17:06;;;;;;;7.50;3.00;;;;;;;-143.48;78.70;77998.28;5035185;28;20026;-75
2022/09/07 06:19:32;;;;;;;4.22;3.15;;;;;;;-143.48;77.90;77988.38;5036331;28;20108;-76
2022/09/07 06:21:57;;;;;;;5.07;3.13;;;;;;;-143.48;78.90;78012.16;5035818;28;20473;-75
2022/09/07 06:24:22;;;;;;;6.32;3.15;;;;;;;-143.48;78.14;77976.47;5036061;28;20033;-75
2022/09/07 06:26:47;;;;;;;5.53;3.13;;;;;;;-143.48;77.69;77968.53;5034209;28;20388;-74
2022/09/07 06:29:13;;;;;;;5.05;3.17;;;;;;;-143.48;77.67;77958.63;5033987;28;20511;-75
2022/09/07 06:31:38;;;;;;;7.35;3.60;;;;;;;-143.48;78.09;77970.53;5033882;28;20448;-75
2022/09/07 06:34:04;;;;;;;6.78;3.70;;;;;;;-143.48;77.43;77948.72;5033456;28;20017;-75
2022/09/07 06:36:29;;;;;;;10.48;3.40;;;;;;;-143.48;78.51;77958.63;5033275;28;20052;-75
2022/09/07 06:38:57;;;;;;;8.27;4.00;;;;;;;-143.48;77.23;77980.44;5032990;28;20022;-74
2022/09/07 06:41:28;;;;;;;5.70;3.78;;;;;;;-143.48;77.99;77986.41;5033390;28;20056;-75
2022/09/07 06:43:55;;;;;;;9.73;3.75;;;;;;;-143.48;77.79;77954.66;5034495;28;20501;-75
2022/09/07 06:46:21;;;;;;;6.78;3.67;;;;;;;-143.48;77.94;77982.44;5034645;28;20030;-75
2022/09/07 06:48:46;;;;;;;7.60;3.90;;;;;;;-143.48;77.38;77944.75;5035184;28;20032;-76
2022/09/07 06:51:18;;;;;;;7.88;3.67;;;;;;;-143.48;76.72;77934.84;5035784;28;20103;-74
2022/09/07 06:53:45;;;;;;;6.88;4.13;;;;;;;-143.48;74.97;77879.31;5033950;28;20362;-75
2022/09/07 06:56:13;;;;;;;11.13;3.83;;;;;;;-143.48;66.32;77591.78;5035060;28;20052;-76
2022/09/07 06:58:39;;;;;;;7.45;3.55;;;;;;;-143.48;61.07;77443.09;5033902;28;20025;-76
2022/09/07 07:01:19;;;;;;;8.13;3.50;;;;;;;-143.48;56.00;77357.81;5035284;28;20065;-75
2022/09/07 07:03:45;;;;;;;7.43;3.50;;;;;;;-143.48;54.29;77296.34;5034961;28;20076;-75
2022/09/07 07:06:11;;;;;;;5.32;3.38;;;;;;;-143.48;56.65;77375.66;5034870;28;20477;-75
2022/09/07 07:08:37;;;;;;;6.85;3.17;;;;;;;-143.48;54.12;77232.91;5035189;28;20421;-75
2022/09/07 07:11:06;;;;;;;5.35;3.42;;;;;;;-143.48;53.51;77224.97;5034116;28;20029;-76
2022/09/07 07:13:36;;;;;;;6.35;4.00;;;;;;;-143.48;54.04;77258.69;5032705;28;20030;-76
2022/09/07 07:16:04;;;;;;;8.00;3.88;;;;;;;-143.48;50.22;77080.25;5033658;28;20025;-75
2022/09/07 07:18:29;;;;;;;6.30;3.60;;;;;;;-143.48;47.30;76949.41;5033652;28;20036;-76
2022/09/07 07:20:55;;;;;;;5.97;3.58;;;;;;;-143.48;48.77;77012.84;5034922;28;20025;-76
2022/09/07 07:23:20;;;;;;;4.97;3.70;;;;;;;-143.48;49.48;77084.22;5034657;28;20025;-75
2022/09/07 07:25:45;;;;;;;7.18;3.85;;;;;;;-143.48;45.92;76931.56;5034489;28;20384;-75
2022/09/07 07:28:10;;;;;;;9.57;4.25;;;;;;;-143.48;45.60;76858.22;5033931;28;20473;-75
2022/09/07 07:30:36;;;;;;;6.70;3.55;;;;;;;-143.48;50.66;77094.13;5033821;28;20055;-75
2022/09/07 07:33:10;;;;;;;7.25;3.70;;;;;;;-143.48;47.00;76913.72;5034598;28;20017;-75
2022/09/07 07:35:35;;;;;;;7.32;3.65;;;;;;;-143.48;48.15;77088.19;5032486;28;20033;-75
2022/09/07 07:38:01;;;;;;;8.57;3.85;;;;;;;-143.48;47.58;76971.22;5034454;28;20032;-76
2022/09/07 07:40:26;;;;;;;11.43;3.80;;;;;;;-143.48;46.37;76969.22;5032548;28;20021;-75
2022/09/07 07:42:52;;;;;;;8.13;3.70;;;;;;;-143.48;44.50;76830.47;5034808;28;20477;-75
2022/09/07 07:45:17;;;;;;;12.30;3.80;;;;;;;-143.48;45.26;76937.50;5031788;28;20032;-75
2022/09/07 07:47:48;;;;;;;9.85;3.63;;;;;;;-143.48;47.14;76963.28;5034136;28;20029;-75
2022/09/07 07:50:13;;;;;;;8.40;4.13;;;;;;;-143.48;45.96;76967.25;5032459;28;20021;-75
2022/09/07 07:52:39;;;;;;;4.55;3.50;;;;;;;-143.48;45.34;76921.66;5034902;28;20031;-75
2022/09/07 07:55:05;;;;;;;5.68;3.85;;;;;;;-143.48;44.63;76862.19;5034146;28;20061;-75
2022/09/07 07:57:30;;;;;;;7.93;3.70;;;;;;;-143.48;46.04;76931.56;5039060;28;20024;-76
2022/09/07 07:59:56;;;;;;;5.45;3.60;;;;;;;-143.48;45.95;76937.50;5042140;28;20393;-80
2022/09/07 08:02:22;;;;;;;8.40;4.57;;;;;;;-143.48;45.98;76969.22;5037175;28;20021;-75
2022/09/07 08:04:47;;;;;;;6.45;4.20;;;;;;;-143.48;45.66;76959.31;5034569;28;20030;-75
2022/09/07 08:07:14;;;;;;;6.68;4.30;;;;;;;-143.48;45.75;76889.94;5032916;28;20416;-75
2022/09/07 08:09:42;;;;;;;8.98;4.45;;;;;;;-143.48;46.59;76931.56;5033902;28;20473;-76
2022/09/07 08:12:10;;;;;;;7.53;4.22;;;;;;;-143.48;47.44;76985.09;5032696;28;20120;-76
2022/09/07 08:14:39;;;;;;;8.63;4.60;;;;;;;-143.48;48.76;77127.84;5032384;28;20025;-75
2022/09/07 08:17:05;;;;;;;8.52;4.75;;;;;;;-143.48;48.59;77119.91;5033846;28;20028;-76
2022/09/07 08:19:30;;;;;;;8.27;4.95;;;;;;;-143.48;50.22;77246.78;5032234;28;20029;-76
2022/09/07 08:21:55;;;;;;;10.90;5.10;;;;;;;-143.48;51.85;77258.69;5033598;28;20021;-76
2022/09/07 08:24:20;;;;;;;9.87;5.17;;;;;;;-143.48;49.74;77173.44;5033335;28;20295;-76
2022/09/07 08:26:46;;;;;;;7.97;4.90;;;;;;;-143.48;46.85;77056.47;5032380;28;20681;-77
2022/09/07 08:29:12;;;;;;;9.82;5.03;;;;;;;-143.48;46.32;76985.09;5033783;28;20026;-77
2022/09/07 08:31:37;;;;;;;6.38;5.00;;;;;;;-143.48;44.39;76883.97;5032135;28;20112;-76
2022/09/07 08:34:02;;;;;;;8.45;4.72;;;;;;;-143.48;44.50;76887.94;5033457;28;20104;-76
2022/09/07 08:36:30;;;;;;;7.53;5.40;;;;;;;-143.48;47.92;77131.81;5032162;28;20455;-77
2022/09/07 08:38:56;;;;;;;7.07;5.40;;;;;;;-143.48;48.25;77139.72;5033383;28;20096;-75
2022/09/07 08:41:39;;;;;;;8.07;5.47;;;;;;;-143.48;46.13;77012.84;5035146;28;20072;-76
2022/09/07 08:44:17;;;;;;;6.53;5.20;;;;;;;-143.48;45.73;76985.09;5032547;28;20433;-77
2022/09/07 08:47:17;;;;;;;7.95;5.60;;;;;;;-143.48;46.08;77022.75;5033335;28;20116;-77
2022/09/07 08:50:09;;;;;;;11.95;6.30;;;;;;;-143.48;44.46;76876.06;4992186;28;20044;-76
2022/09/07 08:52:46;;;;;;;10.85;5.88;;;;;;;-143.48;43.77;76804.69;5002086;28;20044;-76
2022/09/07 08:55:32;;;;;;;9.05;6.13;;;;;;;-143.48;45.84;77004.91;5031245;28;20045;-76
2022/09/07 08:58:06;;;;;;;10.18;5.85;;;;;;;-143.48;47.64;77129.81;5033271;28;20030;-76
2022/09/07 09:00:32;;;;;;;8.80;5.22;;;;;;;-143.48;48.49;77123.88;5032143;28;20477;-76
2022/09/07 09:02:57;;;;;;;8.68;6.07;;;;;;;-143.48;49.50;77155.59;5035170;28;20033;-79
2022/09/07 09:06:08;;;;;;;8.05;5.80;;;;;;;-143.48;49.66;77137.75;5038371;28;20025;-77
2022/09/07 09:09:03;;;;;;;9.02;6.35;;;;;;;-143.48;50.55;77183.34;5039008;28;20524;-76
2022/09/07 09:12:08;;;;;;;8.90;6.15;;;;;;;-143.48;48.62;77121.88;5037466;28;20029;-76
2022/09/07 09:14:54;;;;;;;8.68;5.90;;;;;;;-143.48;48.60;77056.47;5034623;28;20033;-76
2022/09/07 09:17:31;;;;;;;8.18;6.00;;;;;;;-143.48;50.12;77102.06;5031167;28;20049;-76
2022/09/07 09:20:18;;;;;;;8.70;5.32;;;;;;;-143.48;48.53;77004.91;5031449;28;20480;-76
2022/09/07 09:22:43;;;;;;;10.10;6.20;;;;;;;-143.48;48.92;77040.59;5030569;28;20124;-77
2022/09/07 09:25:21;;;;;;;9.13;5.10;;;;;;;-143.48;47.65;77012.84;5032908;28;20426;-77
2022/09/07 09:27:48;;;;;;;9.02;5.35;;;;;;;-143.48;47.06;77032.66;5031823;28;20025;-76
2022/09/07 09:30:23;;;;;;;8.23;5.28;;;;;;;-143.48;48.16;77104.03;5033005;28;20432;-77
2022/09/07 09:32:51;;;;;;;7.45;5.55;;;;;;;-143.48;47.46;77111.97;5033761;28;20469;-77
2022/09/07 09:35:36;;;;;;;8.48;5.32;;;;;;;-143.48;47.72;77141.72;5035760;28;20102;-76
2022/09/07 09:38:05;;;;;;;8.38;6.07;;;;;;;-143.48;48.56;77155.59;5038785;28;20025;-77
2022/09/07 09:40:33;;;;;;;7.47;5.18;;;;;;;-143.48;50.25;77177.41;5037192;28;20030;-77
2022/09/07 09:43:04;;;;;;;7.40;5.85;;;;;;;-143.48;47.82;77121.88;5038927;28;20096;-78
2022/09/07 09:45:43;;;;;;;9.70;6.30;;;;;;;-143.48;48.14;77119.91;5046899;28;20033;-77
2022/09/07 09:48:10;;;;;;;10.57;6.10;;;;;;;-143.48;48.00;77135.75;5045183;28;20558;-78
2022/09/07 09:50:39;;;;;;;9.02;6.20;;;;;;;-143.48;48.21;77113.97;5038585;28;20079;-76
2022/09/07 09:53:05;;;;;;;9.00;6.45;;;;;;;-143.48;48.44;77131.81;5041817;28;20468;-77
2022/09/07 09:55:36;;;;;;;7.47;6.10;;;;;;;-143.48;47.49;77111.97;5038401;28;20065;-73
2022/09/07 09:58:24;;;;;;;9.75;5.63;;;;;;;-143.48;46.60;77076.28;5034991;28;20040;-76
2022/09/07 10:00:56;;;;;;;9.75;5.43;;;;;;;-143.48;46.76;77012.84;5033879;28;20029;-76
2022/09/07 10:03:25;;;;;;;5.68;4.93;;;;;;;-143.48;44.71;76996.97;5036033;28;20057;-75
2022/09/07 10:05:51;;;;;;;7.72;5.22;;;;;;;-143.48;45.97;77111.97;5035746;28;20121;-76
2022/09/07 10:08:27;;;;;;;6.82;4.63;;;;;;;-143.48;45.54;77048.53;5035251;28;20068;-75
2022/09/07 10:11:08;;;;;;;12.00;4.70;;;;;;;-143.48;45.26;77024.75;5034917;28;20072;-76
2022/09/07 10:13:41;;;;;;;8.98;4.60;;;;;;;-143.48;46.00;77084.22;5034704;28;20036;-75
2022/09/07 10:16:08;;;;;;;6.13;4.70;;;;;;;-143.48;45.58;77082.22;5034692;28;20393;-75
2022/09/07 10:18:37;;;;;;;6.32;4.25;;;;;;;-143.48;44.45;77020.78;5034097;28;20373;-75
2022/09/07 10:21:28;;;;;;;7.47;4.40;;;;;;;-143.48;46.41;77123.88;5035707;28;20036;-76
2022/09/07 10:24:05;;;;;;;5.05;4.03;;;;;;;-143.48;46.21;77111.97;5035817;28;20388;-76
2022/09/07 10:26:36;;;;;;;7.25;4.70;;;;;;;-143.48;46.78;77104.03;5034432;28;20029;-76
2022/09/07 10:29:13;;;;;;;6.70;4.50;;;;;;;-143.48;45.97;77094.13;5038118;28;20026;-76
2022/09/07 10:32:02;;;;;;;6.82;4.05;;;;;;;-143.48;45.97;77102.06;5034490;28;20018;-74
2022/09/07 10:35:04;;;;;;;11.68;4.20;;;;;;;-143.48;46.03;77056.47;5035622;28;20030;-76
2022/09/07 10:37:30;;;;;;;6.15;4.03;;;;;;;-143.48;48.35;77104.03;5035003;28;20025;-75
2022/09/07 10:40:13;;;;;;;9.15;4.55;;;;;;;-143.48;46.27;77072.31;5033947;28;20029;-75
2022/09/07 10:42:47;;;;;;;7.20;4.32;;;;;;;-143.48;44.57;76995.00;5035469;28;20032;-75
2022/09/07 10:45:28;;;;;;;7.63;3.90;;;;;;;-143.48;44.88;76975.19;5034246;28;20473;-75
2022/09/07 10:48:18;;;;;;;6.05;2.90;;;;;;;-143.48;42.89;76955.34;5034097;28;20063;-76
2022/09/07 10:50:48;;;;;;;6.47;3.10;;;;;;;-143.48;42.90;76937.50;5035313;28;20033;-75
2022/09/07 10:53:32;;;;;;;9.65;3.08;;;;;;;-143.48;43.12;77000.94;5035358;28;20366;-75
2022/09/07 10:56:24;;;;;;;5.45;2.65;;;;;;;-143.48;43.47;77070.34;5034563;28;20053;-76
2022/09/07 10:59:16;;;;;;;8.23;2.83;;;;;;;-143.48;43.05;77004.91;5032240;28;20022;-75
2022/09/07 11:02:02;;;;;;;7.20;2.77;;;;;;;-143.48;44.06;77104.03;5034767;28;20469;-76
2022/09/07 11:04:43;;;;;;;5.97;2.28;;;;;;;-143.48;43.84;77102.06;5033808;28;20030;-75
2022/09/07 11:07:34;;;;;;;7.57;2.67;;;;;;;-143.48;44.42;77135.75;5034851;28;20028;-75
2022/09/07 11:10:09;;;;;;;7.10;2.50;;;;;;;-143.48;42.67;77066.38;5035067;28;20108;-75
2022/09/07 11:12:38;;;;;;;6.35;2.20;;;;;;;-143.48;42.61;77030.69;5033678;28;20056;-75
2022/09/07 11:15:15;;;;;;;7.55;2.50;;;;;;;-143.48;42.60;77022.75;5035033;28;20040;-77
2022/09/07 11:17:55;;;;;;;8.80;2.60;;;;;;;-143.48;42.05;76929.59;5033588;28;20026;-75
2022/09/07 11:20:44;;;;;;;7.18;2.45;;;;;;;-143.48;42.40;76929.59;5034853;28;20041;-75
2022/09/07 11:23:42;;;;;;;7.78;2.28;;;;;;;-143.48;41.81;76951.38;5016946;28;20048;-75
2022/09/07 11:26:20;;;;;;;6.72;2.00;;;;;;;-143.48;43.31;76951.38;5033329;28;20033;-76
2022/09/07 11:28:52;;;;;;;9.35;2.40;;;;;;;-143.48;42.95;76967.25;5039397;28;20403;-76
2022/09/07 11:31:30;;;;;;;6.90;2.15;;;;;;;-143.48;42.52;76864.16;5035254;28;20385;-76
2022/09/07 11:34:10;;;;;;;7.85;2.28;;;;;;;-143.48;42.11;76998.97;5033259;28;20028;-75